sensor_id;sensor_type;location;lat;lon;timestamp;pressure;altitude;pressure_sealevel;temperature;humidity
70916;BME280;58557;50.982;-3.222;2023-01-26T00:01:10;102365.59;;;3.11;72.57
70916;BME280;58557;50.982;-3.222;2023-01-26T00:03:36;102357.30;;;3.93;71.05
70916;BME280;58557;50.982;-3.222;2023-01-26T00:06:05;102366.41;;;3.28;73.63
70916;BME280;58557;50.982;-3.222;2023-01-26T00:08:24;102361.34;;;2.69;76.57
70916;BME280;58557;50.982;-3.222;2023-01-26T00:10:55;102347.46;;;2.79;76.55
70916;BME280;58557;50.982;-3.222;2023-01-26T00:13:17;102350.40;;;2.32;78.89
70916;BME280;58557;50.982;-3.222;2023-01-26T00:15:41;102347.23;;;2.77;77.40
70916;BME280;58557;50.982;-3.222;2023-01-26T00:18:10;102358.04;;;2.79;77.06
70916;BME280;58557;50.982;-3.222;2023-01-26T00:20:30;102355.39;;;3.52;73.75
70916;BME280;58557;50.982;-3.222;2023-01-26T00:23:01;102357.06;;;3.06;74.27
70916;BME280;58557;50.982;-3.222;2023-01-26T00:25:26;102362.05;;;2.82;74.89
70916;BME280;58557;50.982;-3.222;2023-01-26T00:27:47;102359.49;;;2.85;76.00
70916;BME280;58557;50.982;-3.222;2023-01-26T00:30:12;102358.12;;;3.02;76.36
70916;BME280;58557;50.982;-3.222;2023-01-26T00:32:37;102363.99;;;3.36;75.77
70916;BME280;58557;50.982;-3.222;2023-01-26T00:35:02;102359.84;;;2.74;76.16
70916;BME280;58557;50.982;-3.222;2023-01-26T00:37:27;102356.91;;;2.94;75.91
70916;BME280;58557;50.982;-3.222;2023-01-26T00:39:58;102364.57;;;2.82;76.96
70916;BME280;58557;50.982;-3.222;2023-01-26T00:42:23;102359.00;;;2.64;76.05
70916;BME280;58557;50.982;-3.222;2023-01-26T00:44:49;102365.36;;;3.00;75.35
70916;BME280;58557;50.982;-3.222;2023-01-26T00:47:10;102369.59;;;3.20;73.15
70916;BME280;58557;50.982;-3.222;2023-01-26T00:49:36;102369.42;;;3.64;72.07
70916;BME280;58557;50.982;-3.222;2023-01-26T00:52:05;102362.40;;;3.28;72.54
70916;BME280;58557;50.982;-3.222;2023-01-26T00:54:24;102367.62;;;3.19;73.58
70916;BME280;58557;50.982;-3.222;2023-01-26T00:56:49;102369.41;;;3.42;72.95
70916;BME280;58557;50.982;-3.222;2023-01-26T00:59:20;102374.71;;;3.82;71.41
70916;BME280;58557;50.982;-3.222;2023-01-26T01:01:40;102380.93;;;3.80;70.92
70916;BME280;58557;50.982;-3.222;2023-01-26T01:04:05;102373.22;;;3.88;70.88
70916;BME280;58557;50.982;-3.222;2023-01-26T01:06:30;102369.73;;;3.51;71.19
70916;BME280;58557;50.982;-3.222;2023-01-26T01:08:56;102375.05;;;3.82;70.42
70916;BME280;58557;50.982;-3.222;2023-01-26T01:11:26;102382.53;;;3.97;70.19
70916;BME280;58557;50.982;-3.222;2023-01-26T01:13:46;102382.76;;;4.40;68.72
70916;BME280;58557;50.982;-3.222;2023-01-26T01:16:13;102378.84;;;4.09;69.28
70916;BME280;58557;50.982;-3.222;2023-01-26T01:18:37;102374.61;;;3.97;69.67
70916;BME280;58557;50.982;-3.222;2023-01-26T01:21:05;102372.65;;;4.41;68.82
70916;BME280;58557;50.982;-3.222;2023-01-26T01:23:28;102371.63;;;3.97;70.61
70916;BME280;58557;50.982;-3.222;2023-01-26T01:25:58;102367.31;;;3.92;71.09
70916;BME280;58557;50.982;-3.222;2023-01-26T01:28:17;102358.80;;;4.15;70.72
70916;BME280;58557;50.982;-3.222;2023-01-26T01:30:42;102357.47;;;3.59;72.03
70916;BME280;58557;50.982;-3.222;2023-01-26T01:33:07;102359.57;;;3.83;71.80
70916;BME280;58557;50.982;-3.222;2023-01-26T01:35:33;102358.47;;;4.29;70.01
70916;BME280;58557;50.982;-3.222;2023-01-26T01:37:58;102357.82;;;4.09;70.21
70916;BME280;58557;50.982;-3.222;2023-01-26T01:40:24;102360.17;;;3.92;70.23
70916;BME280;58557;50.982;-3.222;2023-01-26T01:42:55;102363.46;;;4.88;67.90
70916;BME280;58557;50.982;-3.222;2023-01-26T01:47:45;102363.54;;;4.06;70.62
70916;BME280;58557;50.982;-3.222;2023-01-26T01:50:07;102367.28;;;3.68;71.02
70916;BME280;58557;50.982;-3.222;2023-01-26T01:52:31;102371.34;;;3.85;72.10
70916;BME280;58557;50.982;-3.222;2023-01-26T01:54:59;102377.28;;;3.51;72.51
70916;BME280;58557;50.982;-3.222;2023-01-26T01:57:30;102375.57;;;3.39;74.21
70916;BME280;58557;50.982;-3.222;2023-01-26T01:59:53;102374.65;;;3.65;71.92
70916;BME280;58557;50.982;-3.222;2023-01-26T02:02:11;102380.14;;;3.48;72.37
70916;BME280;58557;50.982;-3.222;2023-01-26T02:04:41;102377.95;;;3.71;71.45
70916;BME280;58557;50.982;-3.222;2023-01-26T02:07:02;102378.46;;;4.33;69.03
70916;BME280;58557;50.982;-3.222;2023-01-26T02:09:32;102379.90;;;4.27;69.21
70916;BME280;58557;50.982;-3.222;2023-01-26T02:11:52;102387.73;;;3.78;70.26
70916;BME280;58557;50.982;-3.222;2023-01-26T02:14:23;102387.53;;;4.79;67.00
70916;BME280;58557;50.982;-3.222;2023-01-26T02:16:42;102392.61;;;4.88;66.16
70916;BME280;58557;50.982;-3.222;2023-01-26T02:19:14;102400.05;;;5.21;62.49
70916;BME280;58557;50.982;-3.222;2023-01-26T02:21:39;102396.50;;;6.71;58.46
70916;BME280;58557;50.982;-3.222;2023-01-26T02:24:07;102398.92;;;5.94;59.58
70916;BME280;58557;50.982;-3.222;2023-01-26T02:26:25;102395.95;;;5.51;61.04
70916;BME280;58557;50.982;-3.222;2023-01-26T02:28:49;102395.60;;;5.27;62.51
70916;BME280;58557;50.982;-3.222;2023-01-26T02:31:15;102401.77;;;5.59;61.91
70916;BME280;58557;50.982;-3.222;2023-01-26T02:33:44;102393.11;;;5.76;60.73
70916;BME280;58557;50.982;-3.222;2023-01-26T02:36:16;102394.52;;;5.12;63.54
70916;BME280;58557;50.982;-3.222;2023-01-26T02:38:38;102394.36;;;5.47;64.11
70916;BME280;58557;50.982;-3.222;2023-01-26T02:40:57;102396.13;;;4.24;66.63
70916;BME280;58557;50.982;-3.222;2023-01-26T02:43:20;102402.27;;;4.84;64.77
70916;BME280;58557;50.982;-3.222;2023-01-26T02:45:50;102403.51;;;4.84;64.71
70916;BME280;58557;50.982;-3.222;2023-01-26T02:48:10;102399.71;;;4.21;67.50
70916;BME280;58557;50.982;-3.222;2023-01-26T02:50:41;102413.08;;;4.96;64.68
70916;BME280;58557;50.982;-3.222;2023-01-26T02:53:02;102405.91;;;4.53;67.03
70916;BME280;58557;50.982;-3.222;2023-01-26T02:55:31;102407.37;;;4.59;66.47
70916;BME280;58557;50.982;-3.222;2023-01-26T02:57:54;102413.11;;;5.46;65.15
70916;BME280;58557;50.982;-3.222;2023-01-26T03:00:18;102421.99;;;5.54;62.42
70916;BME280;58557;50.982;-3.222;2023-01-26T03:02:43;102415.96;;;6.75;58.83
70916;BME280;58557;50.982;-3.222;2023-01-26T03:05:07;102410.44;;;6.59;58.93
70916;BME280;58557;50.982;-3.222;2023-01-26T03:07:32;102410.70;;;6.62;57.97
70916;BME280;58557;50.982;-3.222;2023-01-26T03:09:58;102410.99;;;7.10;54.67
70916;BME280;58557;50.982;-3.222;2023-01-26T03:12:24;102414.63;;;7.94;53.31
70916;BME280;58557;50.982;-3.222;2023-01-26T03:14:49;102412.03;;;6.43;56.41
70916;BME280;58557;50.982;-3.222;2023-01-26T03:17:14;102415.70;;;6.90;55.83
70916;BME280;58557;50.982;-3.222;2023-01-26T03:19:40;102419.75;;;7.75;52.39
70916;BME280;58557;50.982;-3.222;2023-01-26T03:22:11;102422.11;;;6.72;54.08
70916;BME280;58557;50.982;-3.222;2023-01-26T03:24:31;102421.59;;;6.70;56.36
70916;BME280;58557;50.982;-3.222;2023-01-26T03:27:01;102418.87;;;7.43;54.56
70916;BME280;58557;50.982;-3.222;2023-01-26T03:29:27;102416.73;;;7.65;52.66
70916;BME280;58557;50.982;-3.222;2023-01-26T03:31:47;102416.08;;;6.71;54.27
70916;BME280;58557;50.982;-3.222;2023-01-26T03:34:18;102413.30;;;6.68;56.94
70916;BME280;58557;50.982;-3.222;2023-01-26T03:36:43;102414.72;;;6.57;57.29
70916;BME280;58557;50.982;-3.222;2023-01-26T03:39:03;102424.11;;;5.21;60.13
70916;BME280;58557;50.982;-3.222;2023-01-26T03:41:28;102422.00;;;4.47;65.38
70916;BME280;58557;50.982;-3.222;2023-01-26T03:43:54;102421.67;;;5.09;63.95
70916;BME280;58557;50.982;-3.222;2023-01-26T03:46:19;102418.44;;;3.95;69.11
70916;BME280;58557;50.982;-3.222;2023-01-26T03:48:49;102419.82;;;3.71;71.10
70916;BME280;58557;50.982;-3.222;2023-01-26T03:51:10;102411.37;;;3.73;71.93
70916;BME280;58557;50.982;-3.222;2023-01-26T03:53:40;102410.64;;;3.34;73.13
70916;BME280;58557;50.982;-3.222;2023-01-26T03:56:06;102419.82;;;3.21;74.69
70916;BME280;58557;50.982;-3.222;2023-01-26T03:58:25;102413.34;;;2.88;76.14
70916;BME280;58557;50.982;-3.222;2023-01-26T04:00:50;102414.88;;;3.02;77.34
70916;BME280;58557;50.982;-3.222;2023-01-26T04:03:17;102421.92;;;2.98;77.56
70916;BME280;58557;50.982;-3.222;2023-01-26T04:05:41;102420.03;;;2.92;78.88
70916;BME280;58557;50.982;-3.222;2023-01-26T04:08:06;102425.84;;;3.19;76.84
70916;BME280;58557;50.982;-3.222;2023-01-26T04:10:31;102421.07;;;3.24;76.85
70916;BME280;58557;50.982;-3.222;2023-01-26T04:13:02;102415.66;;;3.58;75.38
70916;BME280;58557;50.982;-3.222;2023-01-26T04:15:22;102406.99;;;2.79;78.01
70916;BME280;58557;50.982;-3.222;2023-01-26T04:17:47;102422.23;;;2.81;78.81
70916;BME280;58557;50.982;-3.222;2023-01-26T04:20:12;102426.83;;;3.11;77.75
70916;BME280;58557;50.982;-3.222;2023-01-26T04:22:38;102425.21;;;2.72;79.98
70916;BME280;58557;50.982;-3.222;2023-01-26T04:25:03;102429.36;;;2.42;80.29
70916;BME280;58557;50.982;-3.222;2023-01-26T04:27:32;102432.41;;;3.65;76.31
70916;BME280;58557;50.982;-3.222;2023-01-26T04:29:53;102425.47;;;3.64;74.32
70916;BME280;58557;50.982;-3.222;2023-01-26T04:32:18;102429.67;;;4.14;72.98
70916;BME280;58557;50.982;-3.222;2023-01-26T04:34:48;102427.90;;;2.96;76.09
70916;BME280;58557;50.982;-3.222;2023-01-26T04:37:09;102430.18;;;3.22;76.96
70916;BME280;58557;50.982;-3.222;2023-01-26T04:39:34;102438.25;;;3.71;74.56
70916;BME280;58557;50.982;-3.222;2023-01-26T04:42:00;102443.98;;;4.87;68.97
70916;BME280;58557;50.982;-3.222;2023-01-26T04:44:25;102443.97;;;5.06;65.72
70916;BME280;58557;50.982;-3.222;2023-01-26T04:46:55;102442.34;;;4.66;67.14
70916;BME280;58557;50.982;-3.222;2023-01-26T04:49:15;102442.67;;;5.59;64.56
70916;BME280;58557;50.982;-3.222;2023-01-26T04:51:45;102449.15;;;6.54;60.52
70916;BME280;58557;50.982;-3.222;2023-01-26T04:54:07;102452.01;;;5.73;59.29
70916;BME280;58557;50.982;-3.222;2023-01-26T04:56:34;102448.89;;;6.42;57.76
70916;BME280;58557;50.982;-3.222;2023-01-26T04:59:04;102448.59;;;7.02;56.66
70916;BME280;58557;50.982;-3.222;2023-01-26T05:01:23;102459.67;;;7.45;54.46
70916;BME280;58557;50.982;-3.222;2023-01-26T05:03:49;102459.51;;;7.52;55.27
70916;BME280;58557;50.982;-3.222;2023-01-26T05:06:14;102463.74;;;5.87;60.29
70916;BME280;58557;50.982;-3.222;2023-01-26T05:08:39;102456.86;;;6.70;56.78
70916;BME280;58557;50.982;-3.222;2023-01-26T05:11:04;102454.75;;;6.82;56.81
70916;BME280;58557;50.982;-3.222;2023-01-26T05:13:32;102471.08;;;6.76;56.82
70916;BME280;58557;50.982;-3.222;2023-01-26T05:15:55;102468.86;;;7.31;55.25
70916;BME280;58557;50.982;-3.222;2023-01-26T05:18:20;102467.94;;;6.69;56.05
70916;BME280;58557;50.982;-3.222;2023-01-26T05:20:46;102470.57;;;6.90;55.01
70916;BME280;58557;50.982;-3.222;2023-01-26T05:23:11;102472.81;;;6.79;54.42
70916;BME280;58557;50.982;-3.222;2023-01-26T05:25:37;102469.93;;;7.44;53.96
70916;BME280;58557;50.982;-3.222;2023-01-26T05:28:08;102464.88;;;7.25;53.47
70916;BME280;58557;50.982;-3.222;2023-01-26T05:30:33;102466.17;;;7.62;52.07
70916;BME280;58557;50.982;-3.222;2023-01-26T05:35:19;102472.72;;;6.91;52.08
70916;BME280;58557;50.982;-3.222;2023-01-26T05:37:44;102466.24;;;7.18;52.01
70916;BME280;58557;50.982;-3.222;2023-01-26T05:40:15;102471.65;;;7.40;52.10
70916;BME280;58557;50.982;-3.222;2023-01-26T05:42:35;102469.06;;;6.22;54.64
70916;BME280;58557;50.982;-3.222;2023-01-26T05:45:00;102474.69;;;8.21;50.76
70916;BME280;58557;50.982;-3.222;2023-01-26T05:47:25;102472.09;;;7.03;51.89
70916;BME280;58557;50.982;-3.222;2023-01-26T05:49:51;102468.25;;;6.21;54.25
70916;BME280;58557;50.982;-3.222;2023-01-26T05:52:18;102468.96;;;6.56;54.77
70916;BME280;58557;50.982;-3.222;2023-01-26T05:54:47;102468.27;;;7.69;51.96
70916;BME280;58557;50.982;-3.222;2023-01-26T05:57:07;102467.58;;;6.03;55.63
70916;BME280;58557;50.982;-3.222;2023-01-26T05:59:38;102459.40;;;7.61;52.89
70916;BME280;58557;50.982;-3.222;2023-01-26T06:01:59;102455.29;;;6.97;51.99
70916;BME280;58557;50.982;-3.222;2023-01-26T06:04:29;102457.71;;;7.61;51.90
70916;BME280;58557;50.982;-3.222;2023-01-26T06:06:51;102461.58;;;7.35;50.88
70916;BME280;58557;50.982;-3.222;2023-01-26T06:09:15;102465.41;;;7.56;49.89
70916;BME280;58557;50.982;-3.222;2023-01-26T06:11:40;102464.79;;;7.43;51.55
70916;BME280;58557;50.982;-3.222;2023-01-26T06:14:05;102473.05;;;5.62;56.99
70916;BME280;58557;50.982;-3.222;2023-01-26T06:16:31;102467.14;;;6.06;53.26
70916;BME280;58557;50.982;-3.222;2023-01-26T06:19:02;102466.82;;;6.94;51.79
70916;BME280;58557;50.982;-3.222;2023-01-26T06:21:27;102462.02;;;6.67;52.64
70916;BME280;58557;50.982;-3.222;2023-01-26T06:23:49;102466.57;;;7.57;51.38
70916;BME280;58557;50.982;-3.222;2023-01-26T06:26:13;102473.12;;;6.74;51.89
70916;BME280;58557;50.982;-3.222;2023-01-26T06:28:43;102476.89;;;6.75;51.03
70916;BME280;58557;50.982;-3.222;2023-01-26T06:31:06;102477.60;;;6.75;51.64
70916;BME280;58557;50.982;-3.222;2023-01-26T06:33:32;102474.67;;;7.22;50.80
70916;BME280;58557;50.982;-3.222;2023-01-26T06:35:55;102472.53;;;6.54;50.99
70916;BME280;58557;50.982;-3.222;2023-01-26T06:38:25;102476.63;;;7.29;50.54
70916;BME280;58557;50.982;-3.222;2023-01-26T06:40:50;102482.15;;;6.72;50.97
70916;BME280;58557;50.982;-3.222;2023-01-26T06:43:15;102495.85;;;6.11;52.07
70916;BME280;58557;50.982;-3.222;2023-01-26T06:45:40;102491.01;;;7.03;51.24
70916;BME280;58557;50.982;-3.222;2023-01-26T06:48:01;102494.61;;;6.24;51.70
70916;BME280;58557;50.982;-3.222;2023-01-26T06:50:32;102504.12;;;6.93;50.01
70916;BME280;58557;50.982;-3.222;2023-01-26T06:52:59;102508.78;;;7.23;50.70
70916;BME280;58557;50.982;-3.222;2023-01-26T06:55:20;102510.38;;;6.53;51.73
70916;BME280;58557;50.982;-3.222;2023-01-26T06:57:43;102513.46;;;5.99;53.81
70916;BME280;58557;50.982;-3.222;2023-01-26T07:00:10;102516.41;;;6.37;52.58
70916;BME280;58557;50.982;-3.222;2023-01-26T07:02:34;102511.15;;;6.75;52.64
70916;BME280;58557;50.982;-3.222;2023-01-26T07:04:58;102523.31;;;6.49;52.32
70916;BME280;58557;50.982;-3.222;2023-01-26T07:07:25;102527.76;;;6.52;54.89
70916;BME280;58557;50.982;-3.222;2023-01-26T07:09:49;102531.78;;;6.05;54.42
70916;BME280;58557;50.982;-3.222;2023-01-26T07:12:19;102539.86;;;6.14;55.48
70916;BME280;58557;50.982;-3.222;2023-01-26T07:14:44;102541.20;;;4.74;57.94
70916;BME280;58557;50.982;-3.222;2023-01-26T07:17:05;102545.89;;;6.27;55.57
70916;BME280;58557;50.982;-3.222;2023-01-26T07:19:31;102542.10;;;5.70;58.04
70916;BME280;58557;50.982;-3.222;2023-01-26T07:21:56;102538.92;;;4.84;60.90
70916;BME280;58557;50.982;-3.222;2023-01-26T07:24:21;102543.75;;;5.31;60.16
70916;BME280;58557;50.982;-3.222;2023-01-26T07:26:51;102543.49;;;4.35;64.56
70916;BME280;58557;50.982;-3.222;2023-01-26T07:29:12;102544.56;;;3.99;66.20
70916;BME280;58557;50.982;-3.222;2023-01-26T07:31:37;102547.03;;;3.85;66.36
70916;BME280;58557;50.982;-3.222;2023-01-26T07:34:03;102551.02;;;3.69;68.90
70916;BME280;58557;50.982;-3.222;2023-01-26T07:36:29;102548.69;;;3.85;68.57
70916;BME280;58557;50.982;-3.222;2023-01-26T07:38:53;102554.40;;;3.76;69.20
70916;BME280;58557;50.982;-3.222;2023-01-26T07:41:18;102557.61;;;3.82;67.92
70916;BME280;58557;50.982;-3.222;2023-01-26T07:43:43;102559.56;;;4.01;67.72
70916;BME280;58557;50.982;-3.222;2023-01-26T07:46:09;102562.47;;;4.00;66.80
70916;BME280;58557;50.982;-3.222;2023-01-26T07:48:36;102571.80;;;3.94;67.06
70916;BME280;58557;50.982;-3.222;2023-01-26T07:51:05;102575.02;;;5.62;61.37
70916;BME280;58557;50.982;-3.222;2023-01-26T07:53:25;102580.42;;;4.85;63.63
70916;BME280;58557;50.982;-3.222;2023-01-26T07:58:16;102580.94;;;5.43;63.07
70916;BME280;58557;50.982;-3.222;2023-01-26T08:00:40;102582.33;;;5.95;59.37
70916;BME280;58557;50.982;-3.222;2023-01-26T08:03:06;102584.37;;;6.72;55.77
70916;BME280;58557;50.982;-3.222;2023-01-26T08:05:32;102585.00;;;7.41;54.86
70916;BME280;58557;50.982;-3.222;2023-01-26T08:07:57;102583.75;;;7.54;52.59
70916;BME280;58557;50.982;-3.222;2023-01-26T08:10:22;102584.17;;;8.05;51.96
70916;BME280;58557;50.982;-3.222;2023-01-26T08:12:52;102576.70;;;7.51;51.48
70916;BME280;58557;50.982;-3.222;2023-01-26T08:15:18;102578.65;;;7.32;52.63
70916;BME280;58557;50.982;-3.222;2023-01-26T08:17:38;102572.67;;;7.22;52.60
70916;BME280;58557;50.982;-3.222;2023-01-26T08:20:10;102576.43;;;7.24;53.18
70916;BME280;58557;50.982;-3.222;2023-01-26T08:22:29;102580.29;;;7.67;51.81
70916;BME280;58557;50.982;-3.222;2023-01-26T08:24:56;102580.90;;;7.87;51.48
70916;BME280;58557;50.982;-3.222;2023-01-26T08:27:20;102586.09;;;6.18;53.95
70916;BME280;58557;50.982;-3.222;2023-01-26T08:29:50;102579.90;;;7.60;51.63
70916;BME280;58557;50.982;-3.222;2023-01-26T08:32:11;102579.09;;;7.32;52.82
70916;BME280;58557;50.982;-3.222;2023-01-26T08:34:36;102588.66;;;6.53;55.14
70916;BME280;58557;50.982;-3.222;2023-01-26T08:37:02;102589.39;;;7.31;54.07
70916;BME280;58557;50.982;-3.222;2023-01-26T08:39:27;102590.55;;;7.32;53.35
70916;BME280;58557;50.982;-3.222;2023-01-26T08:41:52;102590.79;;;7.04;52.89
70916;BME280;58557;50.982;-3.222;2023-01-26T08:44:22;102601.60;;;6.62;55.13
70916;BME280;58557;50.982;-3.222;2023-01-26T08:46:42;102603.14;;;7.51;52.64
70916;BME280;58557;50.982;-3.222;2023-01-26T08:49:12;102611.01;;;6.44;55.06
70916;BME280;58557;50.982;-3.222;2023-01-26T08:51:37;102609.37;;;5.87;56.71
70916;BME280;58557;50.982;-3.222;2023-01-26T08:53:58;102611.53;;;7.63;54.41
70916;BME280;58557;50.982;-3.222;2023-01-26T08:56:23;102605.59;;;8.07;52.49
70916;BME280;58557;50.982;-3.222;2023-01-26T08:58:53;102612.58;;;6.91;55.26
70916;BME280;58557;50.982;-3.222;2023-01-26T09:01:14;102611.88;;;6.81;55.48
70916;BME280;58557;50.982;-3.222;2023-01-26T09:03:39;102616.58;;;6.98;55.11
70916;BME280;58557;50.982;-3.222;2023-01-26T09:06:05;102621.83;;;6.65;56.88
70916;BME280;58557;50.982;-3.222;2023-01-26T09:08:29;102611.23;;;5.83;59.60
70916;BME280;58557;50.982;-3.222;2023-01-26T09:10:59;102621.62;;;4.58;64.08
70916;BME280;58557;50.982;-3.222;2023-01-26T09:13:24;102623.35;;;5.34;63.04
70916;BME280;58557;50.982;-3.222;2023-01-26T09:15:44;102628.91;;;4.55;64.95
70916;BME280;58557;50.982;-3.222;2023-01-26T09:18:10;102638.69;;;4.72;64.44
70916;BME280;58557;50.982;-3.222;2023-01-26T09:20:40;102629.80;;;4.15;66.30
70916;BME280;58557;50.982;-3.222;2023-01-26T09:23:01;102632.61;;;3.65;70.77
70916;BME280;58557;50.982;-3.222;2023-01-26T09:25:26;102633.92;;;3.73;70.68
70916;BME280;58557;50.982;-3.222;2023-01-26T09:27:51;102640.30;;;3.91;70.20
70916;BME280;58557;50.982;-3.222;2023-01-26T09:30:22;102648.54;;;4.54;67.96
70916;BME280;58557;50.982;-3.222;2023-01-26T09:32:47;102651.39;;;5.07;67.77
70916;BME280;58557;50.982;-3.222;2023-01-26T09:35:08;102649.89;;;4.66;67.07
70916;BME280;58557;50.982;-3.222;2023-01-26T09:37:34;102647.19;;;4.25;67.51
70916;BME280;58557;50.982;-3.222;2023-01-26T09:40:04;102647.23;;;3.82;70.81
70916;BME280;58557;50.982;-3.222;2023-01-26T09:42:36;102650.26;;;4.14;69.45
70916;BME280;58557;50.982;-3.222;2023-01-26T09:44:54;102645.93;;;4.33;68.03
70916;BME280;58557;50.982;-3.222;2023-01-26T09:47:23;102640.36;;;4.40;67.86
70916;BME280;58557;50.982;-3.222;2023-01-26T09:49:46;102638.88;;;4.07;68.70
70916;BME280;58557;50.982;-3.222;2023-01-26T09:52:08;102640.76;;;4.46;68.53
70916;BME280;58557;50.982;-3.222;2023-01-26T09:54:36;102631.80;;;4.48;67.72
70916;BME280;58557;50.982;-3.222;2023-01-26T09:56:55;102633.27;;;4.62;67.74
70916;BME280;58557;50.982;-3.222;2023-01-26T09:59:26;102633.25;;;4.44;67.90
70916;BME280;58557;50.982;-3.222;2023-01-26T10:01:51;102633.98;;;4.92;65.70
70916;BME280;58557;50.982;-3.222;2023-01-26T10:04:17;102629.35;;;5.29;64.93
70916;BME280;58557;50.982;-3.222;2023-01-26T10:06:40;102637.83;;;3.89;69.38
70916;BME280;58557;50.982;-3.222;2023-01-26T10:09:03;102635.45;;;4.93;66.70
70916;BME280;58557;50.982;-3.222;2023-01-26T10:11:29;102632.62;;;4.02;67.87
70916;BME280;58557;50.982;-3.222;2023-01-26T10:13:55;102636.09;;;3.93;68.64
70916;BME280;58557;50.982;-3.222;2023-01-26T10:16:17;102636.88;;;4.44;67.60
70916;BME280;58557;50.982;-3.222;2023-01-26T10:18:53;102642.39;;;4.10;68.89
70916;BME280;58557;50.982;-3.222;2023-01-26T10:21:08;102645.26;;;4.59;67.43
70916;BME280;58557;50.982;-3.222;2023-01-26T10:23:33;102639.34;;;4.15;68.24
70916;BME280;58557;50.982;-3.222;2023-01-26T10:26:11;102638.89;;;4.06;69.26
70916;BME280;58557;50.982;-3.222;2023-01-26T10:28:28;102640.91;;;3.73;69.55
70916;BME280;58557;50.982;-3.222;2023-01-26T10:30:48;102640.98;;;4.05;68.91
70916;BME280;58557;50.982;-3.222;2023-01-26T10:33:15;102643.07;;;3.88;68.48
70916;BME280;58557;50.982;-3.222;2023-01-26T10:35:43;102641.13;;;3.85;68.55
70916;BME280;58557;50.982;-3.222;2023-01-26T10:38:03;102634.80;;;3.62;68.73
70916;BME280;58557;50.982;-3.222;2023-01-26T10:40:28;102639.96;;;4.34;67.26
70916;BME280;58557;50.982;-3.222;2023-01-26T10:42:57;102638.89;;;4.28;65.62
70916;BME280;58557;50.982;-3.222;2023-01-26T10:45:24;102637.89;;;5.22;62.08
70916;BME280;58557;50.982;-3.222;2023-01-26T10:50:21;102634.84;;;4.64;63.10
70916;BME280;58557;50.982;-3.222;2023-01-26T10:52:33;102637.01;;;4.97;63.75
70916;BME280;58557;50.982;-3.222;2023-01-26T10:57:26;102633.07;;;5.21;62.17
70916;BME280;58557;50.982;-3.222;2023-01-26T10:59:52;102628.61;;;6.05;59.62
70916;BME280;58557;50.982;-3.222;2023-01-26T11:02:23;102623.53;;;5.71;59.37
70916;BME280;58557;50.982;-3.222;2023-01-26T11:04:39;102623.45;;;5.98;58.72
70916;BME280;58557;50.982;-3.222;2023-01-26T11:09:29;102629.67;;;6.31;57.83
70916;BME280;58557;50.982;-3.222;2023-01-26T11:11:59;102633.79;;;6.74;56.48
70916;BME280;58557;50.982;-3.222;2023-01-26T11:14:25;102634.59;;;6.09;57.13
70916;BME280;58557;50.982;-3.222;2023-01-26T11:16:49;102637.85;;;5.52;60.56
70916;BME280;58557;50.982;-3.222;2023-01-26T11:19:28;102636.16;;;5.75;60.09
70916;BME280;58557;50.982;-3.222;2023-01-26T11:21:40;102639.34;;;5.24;62.22
70916;BME280;58557;50.982;-3.222;2023-01-26T11:24:13;102636.65;;;5.31;62.03
70916;BME280;58557;50.982;-3.222;2023-01-26T11:26:40;102634.94;;;4.90;62.87
70916;BME280;58557;50.982;-3.222;2023-01-26T11:29:06;102636.97;;;5.32;63.38
70916;BME280;58557;50.982;-3.222;2023-01-26T11:31:28;102643.85;;;5.01;64.72
70916;BME280;58557;50.982;-3.222;2023-01-26T11:33:50;102640.34;;;4.39;66.56
70916;BME280;58557;50.982;-3.222;2023-01-26T11:36:12;102632.86;;;4.62;66.27
70916;BME280;58557;50.982;-3.222;2023-01-26T11:38:38;102622.00;;;4.47;66.19
70916;BME280;58557;50.982;-3.222;2023-01-26T11:41:09;102622.41;;;4.88;65.53
70916;BME280;58557;50.982;-3.222;2023-01-26T11:46:05;102614.34;;;5.94;63.11
70916;BME280;58557;50.982;-3.222;2023-01-26T11:48:20;102615.73;;;5.70;62.54
70916;BME280;58557;50.982;-3.222;2023-01-26T11:50:44;102620.89;;;5.96;61.37
70916;BME280;58557;50.982;-3.222;2023-01-26T11:53:22;102622.92;;;5.50;61.94
70916;BME280;58557;50.982;-3.222;2023-01-26T11:55:37;102618.99;;;5.82;61.66
70916;BME280;58557;50.982;-3.222;2023-01-26T11:58:09;102621.87;;;5.27;62.22
70916;BME280;58557;50.982;-3.222;2023-01-26T12:00:22;102613.15;;;5.55;62.58
70916;BME280;58557;50.982;-3.222;2023-01-26T12:02:49;102616.74;;;5.89;61.25
70916;BME280;58557;50.982;-3.222;2023-01-26T12:05:14;102618.55;;;5.32;61.75
70916;BME280;58557;50.982;-3.222;2023-01-26T12:07:43;102606.73;;;5.63;61.49
70916;BME280;58557;50.982;-3.222;2023-01-26T12:10:01;102609.50;;;4.91;64.11
70916;BME280;58557;50.982;-3.222;2023-01-26T12:12:31;102607.60;;;4.83;64.49
70916;BME280;58557;50.982;-3.222;2023-01-26T12:14:55;102604.70;;;5.17;64.71
70916;BME280;58557;50.982;-3.222;2023-01-26T12:17:26;102603.64;;;5.89;62.80
70916;BME280;58557;50.982;-3.222;2023-01-26T12:19:47;102597.53;;;5.50;62.60
70916;BME280;58557;50.982;-3.222;2023-01-26T12:22:13;102602.63;;;5.67;64.23
70916;BME280;58557;50.982;-3.222;2023-01-26T12:24:35;102603.20;;;4.85;65.59
70916;BME280;58557;50.982;-3.222;2023-01-26T12:27:02;102601.74;;;5.25;65.56
70916;BME280;58557;50.982;-3.222;2023-01-26T12:29:31;102598.63;;;5.31;65.06
70916;BME280;58557;50.982;-3.222;2023-01-26T12:31:49;102590.55;;;5.69;64.26
70916;BME280;58557;50.982;-3.222;2023-01-26T12:34:16;102596.46;;;6.53;61.13
70916;BME280;58557;50.982;-3.222;2023-01-26T12:36:47;102591.55;;;6.01;62.22
70916;BME280;58557;50.982;-3.222;2023-01-26T12:39:13;102590.99;;;5.52;62.34
70916;BME280;58557;50.982;-3.222;2023-01-26T12:41:40;102590.34;;;4.96;65.32
70916;BME280;58557;50.982;-3.222;2023-01-26T12:44:02;102586.71;;;4.82;65.92
70916;BME280;58557;50.982;-3.222;2023-01-26T12:46:23;102589.08;;;4.56;67.82
70916;BME280;58557;50.982;-3.222;2023-01-26T12:48:51;102589.48;;;5.09;65.60
70916;BME280;58557;50.982;-3.222;2023-01-26T12:51:17;102585.53;;;5.41;64.49
70916;BME280;58557;50.982;-3.222;2023-01-26T12:53:37;102584.76;;;5.10;64.12
70916;BME280;58557;50.982;-3.222;2023-01-26T12:56:03;102579.21;;;5.48;64.00